createdAt,value
2023-02-28T00:03:11.313Z,11.20
2023-02-28T00:08:12.052Z,12.85
2023-02-28T00:13:12.981Z,9.45
2023-02-28T00:18:15.015Z,7.78
2023-02-28T00:23:15.684Z,16.30
2023-02-28T00:28:16.385Z,10.02
2023-02-28T00:33:18.856Z,7.85
2023-02-28T00:38:19.582Z,12.45
2023-02-28T00:43:20.270Z,10.48
2023-02-28T00:48:22.277Z,12.15
2023-02-28T00:53:23.316Z,9.80
2023-02-28T00:58:24.001Z,10.07
2023-02-28T01:03:27.287Z,13.98
2023-02-28T01:08:28.605Z,11.90
2023-02-28T01:13:29.269Z,10.75
2023-02-28T01:18:31.775Z,13.07
2023-02-28T01:23:33.052Z,11.80
2023-02-28T01:28:33.856Z,10.55
2023-02-28T01:33:36.595Z,10.32
2023-02-28T01:38:37.447Z,11.27
2023-02-28T01:44:00.270Z,9.38
2023-02-28T01:49:08.244Z,9.35
2023-02-28T01:54:14.693Z,11.95
2023-02-28T01:59:21.194Z,11.10
2023-02-28T02:04:25.617Z,11.38
2023-02-28T02:09:26.341Z,14.20
2023-02-28T02:14:39.726Z,9.48
2023-02-28T02:20:26.381Z,10.50
2023-02-28T02:25:31.400Z,11.30
2023-02-28T02:31:01.889Z,13.48
2023-02-28T02:36:09.324Z,14.07
2023-02-28T02:41:16.900Z,11.27
2023-02-28T02:46:22.030Z,16.25
2023-02-28T02:51:26.603Z,10.90
2023-02-28T02:56:30.788Z,13.15
2023-02-28T03:01:33.678Z,19.92
2023-02-28T03:06:36.794Z,10.57
2023-02-28T03:11:39.588Z,10.82
2023-02-28T03:16:53.766Z,14.15
2023-02-28T03:22:10.176Z,15.00
2023-02-28T03:27:17.133Z,11.05
2023-02-28T03:32:23.765Z,17.65
2023-02-28T03:37:28.328Z,17.88
2023-02-28T03:42:31.641Z,17.05
2023-02-28T03:47:37.008Z,12.77
2023-02-28T03:52:45.601Z,16.10
2023-02-28T03:57:55.580Z,14.77
2023-02-28T04:02:56.641Z,18.27
2023-02-28T04:08:06.015Z,15.88
2023-02-28T04:13:06.683Z,14.98
2023-02-28T04:18:07.913Z,20.20
2023-02-28T04:23:09.930Z,18.13
2023-02-28T04:28:11.072Z,17.40
2023-02-28T04:33:11.745Z,20.27
2023-02-28T04:38:13.911Z,21.05
2023-02-28T04:43:14.576Z,15.00
2023-02-28T04:48:15.200Z,16.00
2023-02-28T04:53:17.197Z,19.60
2023-02-28T04:58:18.150Z,24.38
2023-02-28T05:03:18.933Z,16.38
2023-02-28T05:08:20.982Z,21.02
2023-02-28T05:13:21.628Z,19.98
2023-02-28T05:18:22.289Z,21.95
2023-02-28T05:23:24.746Z,17.63
2023-02-28T05:28:25.540Z,20.30
2023-02-28T05:33:26.177Z,17.98
2023-02-28T05:38:28.159Z,18.67
2023-02-28T05:43:28.802Z,22.17
2023-02-28T05:48:29.556Z,22.08
2023-02-28T05:53:32.292Z,25.58
2023-02-28T05:58:33.477Z,22.58
2023-02-28T06:03:34.438Z,21.83
2023-02-28T06:08:36.508Z,24.83
2023-02-28T06:13:37.515Z,20.00
2023-02-28T06:18:38.273Z,21.15
2023-02-28T06:23:40.663Z,22.10
2023-02-28T06:28:41.754Z,21.58
2023-02-28T06:33:43.467Z,22.10
2023-02-28T06:38:49.336Z,21.45
2023-02-28T06:43:50.080Z,29.90
2023-02-28T06:48:50.869Z,22.05
2023-02-28T06:53:53.117Z,24.40
2023-02-28T06:58:54.412Z,27.10
2023-02-28T07:03:55.626Z,29.35
2023-02-28T07:08:57.728Z,18.70
2023-02-28T07:13:59.079Z,20.80
2023-02-28T07:18:59.714Z,26.35
2023-02-28T07:24:01.788Z,22.58
2023-02-28T07:29:03.175Z,22.70
2023-02-28T07:34:04.498Z,21.42
2023-02-28T07:39:06.635Z,20.27
2023-02-28T07:44:07.375Z,21.35
2023-02-28T07:49:08.116Z,20.92
2023-02-28T07:54:10.271Z,17.63
2023-02-28T07:59:11.024Z,17.52
2023-02-28T08:04:11.783Z,17.90
2023-02-28T08:09:13.947Z,21.77
2023-02-28T08:14:14.691Z,18.52
2023-02-28T08:19:15.398Z,22.33
2023-02-28T08:24:17.413Z,24.05
2023-02-28T08:29:19.181Z,22.20
2023-02-28T08:34:19.863Z,20.25
2023-02-28T08:39:21.975Z,16.33
2023-02-28T08:44:22.680Z,21.20
2023-02-28T08:49:23.355Z,17.27
2023-02-28T08:54:25.376Z,20.60
2023-02-28T08:59:26.074Z,18.27
2023-02-28T09:04:26.908Z,18.60
2023-02-28T09:09:29.032Z,19.45
2023-02-28T09:14:29.699Z,17.58
2023-02-28T09:19:30.357Z,18.85
2023-02-28T09:24:33.955Z,18.90
2023-02-28T09:29:36.091Z,20.33
2023-02-28T09:34:37.930Z,16.15
2023-02-28T09:39:40.026Z,19.02
2023-02-28T09:44:45.405Z,15.85
2023-02-28T09:49:48.780Z,17.20
2023-02-28T09:54:50.845Z,15.27
2023-02-28T10:00:02.780Z,12.07
2023-02-28T10:05:15.619Z,14.90
2023-02-28T10:10:24.726Z,14.40
2023-02-28T10:15:28.230Z,13.27
2023-02-28T10:20:30.981Z,11.80
2023-02-28T10:25:33.018Z,14.15
2023-02-28T10:30:33.718Z,17.77
2023-02-28T10:35:35.255Z,21.58
2023-02-28T10:40:37.835Z,13.73
2023-02-28T10:45:39.252Z,12.68
2023-02-28T10:50:46.318Z,19.30
2023-02-28T10:55:59.093Z,17.73
2023-02-28T11:01:01.236Z,15.35
2023-02-28T11:06:09.039Z,17.65
2023-02-28T11:11:11.137Z,14.80
2023-02-28T11:16:14.223Z,18.05
2023-02-28T11:21:22.468Z,16.08
2023-02-28T11:26:42.600Z,18.27
2023-02-28T11:31:43.343Z,17.40
2023-02-28T11:36:45.651Z,16.30
2023-02-28T11:42:06.932Z,12.82
2023-02-28T11:47:15.034Z,16.30
2023-02-28T11:52:23.508Z,14.15
2023-02-28T11:57:50.513Z,15.88
2023-02-28T12:03:06.022Z,14.10
2023-02-28T12:08:25.160Z,13.15
2023-02-28T12:13:37.970Z,13.18
2023-02-28T12:18:53.387Z,14.32
2023-02-28T12:24:12.212Z,14.02
2023-02-28T12:29:20.489Z,14.88
2023-02-28T12:34:24.482Z,14.02
2023-02-28T12:39:30.112Z,15.55
2023-02-28T12:44:39.450Z,16.98
2023-02-28T12:49:45.664Z,19.00
2023-02-28T12:54:52.031Z,17.73
2023-02-28T12:59:57.937Z,19.35
2023-02-28T13:05:34.660Z,18.15
2023-02-28T13:10:45.029Z,20.63
2023-02-28T13:16:03.224Z,19.88
2023-02-28T13:21:04.459Z,21.67
2023-02-28T13:26:05.601Z,17.13
2023-02-28T13:31:08.254Z,17.52
2023-02-28T13:36:11.988Z,20.70
2023-02-28T13:41:57.131Z,21.42
2023-02-28T13:47:25.582Z,21.30
2023-02-28T13:52:26.953Z,20.25
2023-02-28T13:57:41.512Z,19.70
2023-02-28T14:03:07.759Z,25.40
2023-02-28T14:08:16.397Z,22.85
2023-02-28T14:13:45.967Z,23.55
2023-02-28T14:18:56.895Z,20.75
2023-02-28T14:24:27.633Z,21.45
2023-02-28T14:30:01.230Z,21.23
2023-02-28T14:35:15.000Z,23.05
2023-02-28T14:40:19.059Z,20.95
2023-02-28T14:45:21.315Z,17.17
2023-02-28T14:50:26.386Z,20.65
2023-02-28T14:55:30.963Z,25.48
2023-02-28T15:00:34.335Z,19.35
2023-02-28T15:05:36.903Z,23.23
2023-02-28T15:10:37.748Z,22.08
2023-02-28T15:16:00.942Z,26.23
2023-02-28T15:21:08.194Z,24.27
2023-02-28T15:26:09.446Z,23.85
2023-02-28T15:31:23.849Z,24.60
2023-02-28T15:36:30.887Z,21.73
2023-02-28T15:41:39.867Z,21.33
2023-02-28T15:46:41.225Z,20.75
2023-02-28T15:51:43.786Z,19.88
2023-02-28T15:56:47.714Z,26.30
2023-02-28T16:01:49.104Z,19.58
2023-02-28T16:07:04.151Z,23.90
2023-02-28T16:12:06.407Z,20.75
2023-02-28T16:17:09.851Z,19.48
2023-02-28T16:22:12.192Z,19.90
2023-02-28T16:27:20.764Z,23.83
2023-02-28T16:32:21.488Z,25.10
2023-02-28T16:37:23.560Z,21.95
2023-02-28T16:42:26.874Z,22.50
2023-02-28T16:47:27.741Z,22.10
2023-02-28T16:52:29.764Z,20.90
2023-02-28T16:57:31.898Z,20.83
2023-02-28T17:02:33.768Z,21.42
2023-02-28T17:07:35.898Z,28.00
2023-02-28T17:12:36.694Z,23.33
2023-02-28T17:17:39.061Z,25.67
2023-02-28T17:22:41.063Z,29.85
2023-02-28T17:27:41.957Z,26.17
2023-02-28T17:32:42.677Z,26.58
2023-02-28T17:37:44.750Z,29.55
2023-02-28T17:42:45.502Z,29.83
2023-02-28T17:47:49.761Z,35.70
2023-02-28T17:52:52.247Z,27.42
2023-02-28T17:57:52.917Z,28.50
2023-02-28T18:02:53.765Z,30.27
2023-02-28T18:07:55.906Z,26.88
2023-02-28T18:12:56.946Z,29.55
2023-02-28T18:17:57.632Z,25.27
2023-02-28T18:22:59.632Z,30.10
2023-02-28T18:28:00.766Z,23.48
2023-02-28T18:33:03.138Z,24.60
2023-02-28T18:38:08.869Z,29.85
2023-02-28T18:43:10.171Z,29.52
2023-02-28T18:48:10.830Z,25.65
2023-02-28T18:53:12.923Z,29.90
2023-02-28T18:58:14.494Z,26.70
2023-02-28T19:03:15.161Z,25.27
2023-02-28T19:08:17.255Z,32.22
2023-02-28T19:13:18.374Z,36.38
2023-02-28T19:18:19.244Z,30.60
2023-02-28T19:23:21.297Z,32.75
2023-02-28T19:28:22.004Z,38.13
2023-02-28T19:33:22.803Z,36.90
2023-02-28T19:38:24.859Z,40.17
2023-02-28T19:43:25.984Z,32.97
2023-02-28T19:48:28.408Z,39.80
2023-02-28T19:53:32.033Z,35.25
2023-02-28T19:58:33.126Z,36.05
2023-02-28T20:03:33.833Z,34.80
2023-02-28T20:08:35.924Z,39.28
2023-02-28T20:13:36.963Z,34.88
2023-02-28T20:18:38.636Z,35.97
2023-02-28T20:23:40.921Z,40.22
2023-02-28T20:28:42.235Z,42.58
2023-02-28T20:33:46.600Z,48.38
2023-02-28T20:38:49.151Z,48.45
2023-02-28T20:43:54.555Z,50.17
2023-02-28T20:48:55.429Z,49.58
2023-02-28T20:53:57.600Z,47.05
2023-02-28T20:58:58.382Z,53.78
2023-02-28T21:04:00.707Z,45.20
2023-02-28T21:09:04.998Z,59.40
2023-02-28T21:14:07.471Z,48.47
2023-02-28T21:19:10.185Z,44.25
2023-02-28T21:24:12.653Z,45.97
2023-02-28T21:29:14.851Z,50.55
2023-02-28T21:34:18.251Z,45.85
2023-02-28T21:39:23.282Z,42.80
2023-02-28T21:44:28.087Z,49.88
2023-02-28T21:49:28.843Z,42.13
2023-02-28T21:54:30.881Z,49.25
2023-02-28T21:59:31.977Z,50.42
2023-02-28T22:04:32.659Z,47.80
2023-02-28T22:09:34.677Z,51.15
2023-02-28T22:14:35.455Z,48.78
2023-02-28T22:19:36.614Z,50.47
2023-02-28T22:24:38.817Z,53.25
2023-02-28T22:29:39.686Z,53.80
2023-02-28T22:34:40.533Z,51.03
2023-02-28T22:39:42.767Z,56.67
2023-02-28T22:44:44.061Z,54.38
2023-02-28T22:49:45.283Z,49.97
2023-02-28T22:54:50.567Z,43.38
2023-02-28T22:59:51.385Z,47.42
2023-02-28T23:04:52.092Z,42.50
2023-02-28T23:09:54.752Z,42.58
2023-02-28T23:14:55.415Z,46.17
2023-02-28T23:19:56.126Z,44.42
2023-02-28T23:24:58.358Z,44.22
2023-02-28T23:29:59.075Z,53.47
2023-02-28T23:35:00.574Z,52.17
2023-02-28T23:40:03.143Z,51.75
2023-02-28T23:45:04.715Z,46.72
2023-02-28T23:50:06.186Z,44.75
2023-02-28T23:55:09.125Z,49.45
